Tokyo, Japan

9:25 AM JST on 三月 31, 2017 (GMT +0900)
Tokyo (Haneda) International

天気 に付いての歴史 RJTT - 二月, 2017

Change the Weather History Date:

金曜日, 二月 17, 2017

  Actual Average Record
Temperature  
平均温度 55 °F -  
最高温度 66 °F 52 °F 66 °F (2017)
最低温度 44 °F 39 °F 32 °F (2013)
Degree Days  
暖房度日 10    
Growing Degree Days 5 (Base 50)    
Moisture  
露点温度 43 °F    
Average Humidity 59    
Maximum Humidity 71    
Minimum Humidity 44    
降水確率  
降水確率 0.00 インチ - - ()
海面圧  
海面圧 29.87 インチ    
 
風速 16 Mph ()    
最大風速 41 Mph    
Max Gust Speed 55 Mph    
視程 6.2 マイル    
イベント      
Averages and records for this station are not official NWS values.
T = Trace of Precipitation, MM = Missing Value Source: Averaged Metar Reports

Daily Weather History Graph

Daily Weather History Graph

Search for Another Location

Airport or City:

Trip Planner

Search our weather history database for the weather conditions in past years. The results will help you decide how hot, cold, wet, or windy it might be!

Date:

天文

Feb. 17, 2017 入り
実時間 6:25 AM JST 5:24 PM JST
常用薄明 5:59 AM JST 5:50 PM JST
航海薄明 5:29 AM JST 6:20 PM JST
天文薄明 5:00 AM JST 6:49 PM JST
11:23 PM JST (2/17) 9:55 AM JST (2/17)
可視光の長さ 11h 50m
可照時間
10h 58m
十八夜, 66% of the Moon is Illuminated
2月 17
十八夜
2月 19
第 4 四半期
2月 27
新しい
3月 5
上弦
3月 12
満月

Hourly Weather History & Observations

時間 (JST) 温度 体感気温(寒さ) 露点温度 湿度 気圧 視程 Wind Dir 風速 突風の速度 Precip イベント 現在の気象状況
12:00 AM 46.4 °F 41.5 °F 37.4 °F 71% 30.12 インチ 6.2 マイル 西 10.4 Mph - N/A   所により曇
12:30 AM 46.4 °F 41.9 °F 37.4 °F 71% 30.12 インチ - 西 9.2 Mph - N/A  
1:00 AM 46.4 °F 41.5 °F 35.6 °F 66% 30.12 インチ - 西 10.4 Mph - N/A  
1:30 AM 44.6 °F 40.7 °F 35.6 °F 71% 30.09 インチ - 西南西 6.9 Mph - N/A  
2:00 AM 44.6 °F 40.2 °F 33.8 °F 66% 30.09 インチ - 西 8.1 Mph - N/A  
2:30 AM 44.6 °F 40.2 °F 33.8 °F 66% 30.06 インチ - 西 8.1 Mph - N/A  
3:00 AM 44.6 °F 40.7 °F 32.0 °F 61% 30.06 インチ - 西 6.9 Mph - N/A  
3:30 AM 44.6 °F 43.1 °F 33.8 °F 66% 30.06 インチ - 西北西 3.5 Mph - N/A  
4:00 AM 46.4 °F - 32.0 °F 57% 30.04 インチ - 変数 2.3 Mph - N/A  
4:30 AM 44.6 °F 43.1 °F 32.0 °F 61% 30.04 インチ - 南西 3.5 Mph - N/A  
5:00 AM 46.4 °F 45.2 °F 32.0 °F 57% 30.01 インチ - 西 3.5 Mph - N/A  
5:30 AM 44.6 °F 40.2 °F 33.8 °F 66% 30.01 インチ 6.2 マイル 北西 8.1 Mph - N/A   所により曇
6:00 AM 44.6 °F 40.2 °F 35.6 °F 71% 30.01 インチ 6.2 マイル 北西 8.1 Mph - N/A   所により曇
6:30 AM 51.8 °F - 35.6 °F 54% 29.98 インチ 6.2 マイル 西南西 5.8 Mph - N/A   所により曇
6:46 AM 57.2 °F - 39.2 °F 51% 29.98 インチ 6.2 マイル 南西 17.3 Mph 28.8 Mph N/A   所により曇
7:00 AM 59.0 °F - 41.0 °F 51% 29.95 インチ 6.2 マイル 南西 24.2 Mph - N/A   所により曇
7:01 AM 59.0 °F - 41.0 °F 51% 29.95 インチ 6.2 マイル 南西 23.0 Mph 34.5 Mph N/A   所により曇
7:30 AM 59.0 °F - 46.4 °F 63% 29.98 インチ 6.2 マイル 南南西 23.0 Mph 34.5 Mph N/A   所により曇
8:00 AM 60.8 °F - 46.4 °F 59% 29.95 インチ 6.2 マイル 南南西 23.0 Mph - N/A   所により曇
8:05 AM 60.8 °F - 46.4 °F 59% 29.95 インチ 6.2 マイル 南南西 24.2 Mph 35.7 Mph N/A   所により曇
8:30 AM 60.8 °F - 48.2 °F 63% 29.95 インチ 6.2 マイル 南南西 25.3 Mph - N/A   所により曇
8:31 AM 60.8 °F - 48.2 °F 63% 29.95 インチ 6.2 マイル 南南西 24.2 Mph 35.7 Mph N/A   所により曇
9:00 AM 60.8 °F - 46.4 °F 59% 29.92 インチ 6.2 マイル 南南西 25.3 Mph - N/A   所により曇
9:04 AM 62.6 °F - 48.2 °F 59% 29.92 インチ 6.2 マイル 南南西 24.2 Mph 35.7 Mph N/A   所により曇
9:30 AM 62.6 °F - 48.2 °F 59% 29.92 インチ 6.2 マイル 南南西 27.6 Mph 39.1 Mph N/A   所により曇
10:00 AM 62.6 °F - 48.2 °F 59% 29.89 インチ 6.2 マイル 31.1 Mph 42.6 Mph N/A   所により曇
10:30 AM 64.4 °F - 48.2 °F 56% 29.89 インチ 6.2 マイル 南南西 26.5 Mph 38.0 Mph N/A   所により曇
11:00 AM 64.4 °F - 50.0 °F 59% 29.86 インチ 6.2 マイル 南南西 27.6 Mph 39.1 Mph N/A   所により曇
11:25 AM 66.2 °F - 48.2 °F 52% 29.83 インチ 6.2 マイル 南南西 32.2 Mph 46.0 Mph N/A   低地風じん(ちり)
11:30 AM 66.2 °F - 48.2 °F 52% 29.83 インチ 6.2 マイル 南南西 31.1 Mph 44.9 Mph N/A   低地風じん(ちり)
12:00 PM 66.2 °F - 46.4 °F 49% 29.83 インチ 6.2 マイル 南西 41.4 Mph 55.2 Mph N/A   低地風じん(ちり)
12:22 PM 66.2 °F - 48.2 °F 52% 29.80 インチ 6.2 マイル 南南西 29.9 Mph 48.3 Mph N/A   所により曇
12:30 PM 66.2 °F - 46.4 °F 49% 29.77 インチ 6.2 マイル 南南西 33.4 Mph 48.3 Mph N/A   所により曇
1:00 PM 66.2 °F - 50.0 °F 56% 29.77 インチ 6.2 マイル 南西 35.7 Mph 50.6 Mph N/A   やや曇
1:30 PM 66.2 °F - 50.0 °F 56% 29.77 インチ 6.2 マイル 南西 33.4 Mph - N/A   やや曇
1:37 PM 66.2 °F - 51.8 °F 60% 29.77 インチ 6.2 マイル 南西 28.8 Mph 40.3 Mph N/A   やや曇
2:00 PM 64.4 °F - 51.8 °F 64% 29.74 インチ 6.2 マイル 南南西 32.2 Mph 47.2 Mph N/A   やや曇
2:30 PM 64.4 °F - 50.0 °F 59% 29.74 インチ 6.2 マイル 南南西 27.6 Mph 43.7 Mph N/A   やや曇
3:00 PM 64.4 °F - 50.0 °F 59% 29.71 インチ 6.2 マイル 南南西 33.4 Mph 46.0 Mph N/A   やや曇
3:30 PM 64.4 °F - 51.8 °F 64% 29.71 インチ 6.2 マイル 南南西 27.6 Mph 42.6 Mph N/A   やや曇
4:00 PM 66.2 °F - 51.8 °F 60% 29.71 インチ 6.2 マイル 南西 29.9 Mph 42.6 Mph N/A   やや曇
4:30 PM 66.2 °F - 51.8 °F 60% 29.71 インチ 6.2 マイル 南西 25.3 Mph - N/A   所により曇
4:39 PM 64.4 °F - 51.8 °F 64% 29.71 インチ 6.2 マイル 南西 24.2 Mph 38.0 Mph N/A   所により曇
5:00 PM 64.4 °F - 51.8 °F 64% 29.71 インチ 6.2 マイル 南西 24.2 Mph 35.7 Mph N/A   所により曇
5:30 PM 64.4 °F - 51.8 °F 64% 29.71 インチ 6.2 マイル 南西 23.0 Mph - N/A   所により曇
5:34 PM 64.4 °F - 51.8 °F 64% 29.71 インチ 6.2 マイル 南西 24.2 Mph 39.1 Mph N/A   所により曇
6:00 PM 64.4 °F - 50.0 °F 59% 29.71 インチ 6.2 マイル 南西 26.5 Mph - N/A   所により曇
6:01 PM 64.4 °F - 51.8 °F 64% 29.71 インチ 6.2 マイル 南西 26.5 Mph 38.0 Mph N/A   所により曇
6:30 PM 62.6 °F - 50.0 °F 63% 29.71 インチ 6.2 マイル 南西 24.2 Mph - N/A   所により曇
7:00 PM 62.6 °F - 50.0 °F 63% 29.71 インチ - 南西 21.9 Mph - N/A  
7:30 PM 62.6 °F - 50.0 °F 63% 29.71 インチ - 南南西 24.2 Mph - N/A  
8:00 PM 62.6 °F - 50.0 °F 63% 29.74 インチ - 南南西 21.9 Mph - N/A  
8:18 PM 62.6 °F - 50.0 °F 63% 29.74 インチ 6.2 マイル 西 18.4 Mph - N/A   所により曇
8:30 PM 57.2 °F - 39.2 °F 51% 29.77 インチ 6.2 マイル 北北西 16.1 Mph - N/A   所により曇
9:00 PM 55.4 °F - 35.6 °F 47% 29.80 インチ 6.2 マイル 北北西 18.4 Mph - N/A   所により曇
9:30 PM 53.6 °F - 33.8 °F 47% 29.80 インチ 6.2 マイル 19.6 Mph - N/A   所により曇
10:00 PM 53.6 °F - 32.0 °F 44% 29.80 インチ 6.2 マイル 23.0 Mph - N/A   所により曇
10:09 PM 53.6 °F - 33.8 °F 47% 29.83 インチ 6.2 マイル 北北西 19.6 Mph 31.1 Mph N/A   所により曇
10:30 PM 51.8 °F - 32.0 °F 47% 29.83 インチ 6.2 マイル 21.9 Mph - N/A   所により曇
11:00 PM 51.8 °F - 32.0 °F 47% 29.83 インチ 6.2 マイル 18.4 Mph - N/A   所により曇
11:30 PM 50.0 °F - 32.0 °F 50% 29.83 インチ 6.2 マイル 18.4 Mph - N/A   所により曇